Time;durP1;ratioP1;P1;durP2;ratioP2;P2;SDS_P1;SDS_P2;PMS_P1;PMS_P2;Temp;Humidity;BMP_temperature;BMP_pressure;BME280_temperature;BME280_humidity;BME280_pressure;Samples;Min_cycle;Max_cycle;Signal;HPM_P1;HPM_P2
2021/11/07 00:06:31;;;;;;;10.80;5.87;;;;;;;-145.18;100.00;60484.78;5071059;28;20197;-71
2021/11/07 00:09:25;;;;;;;9.87;5.43;;;;;;;-145.18;100.00;60484.78;5076877;28;20023;-68
2021/11/07 00:11:43;;;;;;;10.33;5.80;;;;;;;-145.18;100.00;60484.78;5081234;28;20146;-68
2021/11/07 00:14:11;;;;;;;10.67;4.50;;;;;;;-145.18;100.00;60484.78;5080021;28;20102;-68
2021/11/07 00:16:40;;;;;;;10.53;5.77;;;;;;;-145.18;100.00;60484.78;5078910;28;20056;-68
2021/11/07 00:19:15;;;;;;;9.23;4.80;;;;;;;-145.18;100.00;60484.78;5071494;28;20044;-68
2021/11/07 00:24:17;;;;;;;11.02;5.90;;;;;;;-145.18;100.00;60484.78;5079547;28;20480;-68
2021/11/07 00:29:34;;;;;;;9.43;3.77;;;;;;;-145.18;100.00;60484.78;5079500;28;20067;-68
2021/11/07 00:32:18;;;;;;;8.93;4.97;;;;;;;-145.18;100.00;60484.78;5077577;28;20028;-71
2021/11/07 00:42:35;;;;;;;7.37;4.07;;;;;;;-145.18;100.00;60484.78;5080281;28;20024;-69
2021/11/07 00:45:10;;;;;;;9.13;5.03;;;;;;;-145.18;100.00;60484.78;5070318;28;20028;-69
2021/11/07 00:47:42;;;;;;;8.33;5.30;;;;;;;-145.18;100.00;60484.78;5078719;28;20023;-69
2021/11/07 00:50:13;;;;;;;8.40;4.90;;;;;;;-145.18;100.00;60484.78;5073648;28;20020;-69
2021/11/07 00:58:01;;;;;;;10.23;4.97;;;;;;;-145.18;100.00;60484.78;5006244;28;20237;-69
2021/11/07 01:03:01;;;;;;;8.03;4.47;;;;;;;-145.18;100.00;60484.78;5013998;28;20048;-70
2021/11/07 01:05:32;;;;;;;8.90;4.60;;;;;;;-145.18;100.00;60484.78;5003998;28;20052;-70
2021/11/07 01:07:59;;;;;;;8.33;4.23;;;;;;;-145.18;100.00;60484.78;5013151;28;20083;-70
2021/11/07 01:10:26;;;;;;;7.70;4.37;;;;;;;-145.18;100.00;60484.78;5015030;28;20496;-70
2021/11/07 01:12:53;;;;;;;9.33;4.83;;;;;;;-145.18;100.00;60484.78;5016097;28;20573;-70
2021/11/07 01:15:19;;;;;;;9.80;4.80;;;;;;;-145.18;100.00;60484.78;5010246;28;20151;-69
2021/11/07 01:17:44;;;;;;;12.83;5.73;;;;;;;-145.18;100.00;60484.78;5014076;28;20060;-70
2021/11/07 01:20:11;;;;;;;7.30;4.20;;;;;;;-145.18;100.00;60484.78;5016235;28;20512;-70
2021/11/07 01:25:09;;;;;;;7.97;4.13;;;;;;;-145.18;100.00;60484.78;5016187;28;20025;-70
2021/11/07 01:27:40;;;;;;;6.70;3.77;;;;;;;-145.18;100.00;60484.78;5014547;28;20112;-70
2021/11/07 01:30:13;;;;;;;6.33;3.50;;;;;;;-145.18;100.00;60484.78;5011318;28;20037;-70
2021/11/07 01:32:42;;;;;;;8.27;4.40;;;;;;;-145.18;100.00;60484.78;5044736;28;20035;-70
2021/11/07 01:38:29;;;;;;;9.73;4.37;;;;;;;-145.18;100.00;60484.78;5072567;28;20435;-70
2021/11/07 01:40:40;;;;;;;5.90;3.07;;;;;;;-145.18;100.00;60484.78;5054851;28;20226;-70
2021/11/07 01:43:06;;;;;;;7.38;4.20;;;;;;;-145.18;100.00;60484.78;5071822;28;20035;-70
2021/11/07 01:45:44;;;;;;;10.17;4.13;;;;;;;-145.18;100.00;60484.78;5076656;28;20027;-70
2021/11/07 01:50:44;;;;;;;8.80;4.37;;;;;;;-145.18;100.00;60484.78;5072094;28;20034;-70
2021/11/07 01:53:21;;;;;;;8.77;4.33;;;;;;;-145.18;100.00;60484.78;5075591;28;20515;-70
2021/11/07 01:55:48;;;;;;;8.77;4.83;;;;;;;-145.18;100.00;60484.78;5075440;28;20035;-70
2021/11/07 01:58:13;;;;;;;7.77;4.30;;;;;;;-145.18;100.00;60484.78;5079026;28;20269;-69
2021/11/07 02:00:39;;;;;;;7.87;4.20;;;;;;;-145.18;100.00;60484.78;5081311;22;20044;-71
2021/11/07 02:03:05;;;;;;;7.80;4.27;;;;;;;-145.18;100.00;60484.78;5058390;28;20033;-71
2021/11/07 02:05:30;;;;;;;8.67;3.77;;;;;;;-145.18;100.00;60484.78;5060256;28;20039;-71
2021/11/07 02:07:56;;;;;;;10.30;4.60;;;;;;;-145.18;100.00;60484.78;5059692;28;20025;-71
2021/11/07 02:10:21;;;;;;;8.13;4.20;;;;;;;-145.18;100.00;60484.78;5055371;28;20017;-71
2021/11/07 02:12:47;;;;;;;7.20;3.80;;;;;;;-145.18;100.00;60484.78;5058376;28;20028;-71
2021/11/07 02:15:17;;;;;;;6.30;3.10;;;;;;;-145.18;100.00;60484.78;5059232;28;20024;-71
2021/11/07 02:17:43;;;;;;;7.47;4.10;;;;;;;-145.18;100.00;60484.78;5040787;28;20147;-71
2021/11/07 02:20:14;;;;;;;8.47;4.43;;;;;;;-145.18;100.00;60484.78;5059052;28;20023;-71
2021/11/07 02:22:41;;;;;;;8.23;4.13;;;;;;;-145.18;100.00;60484.78;5062642;28;20020;-71
2021/11/07 02:25:08;;;;;;;11.37;5.07;;;;;;;-145.18;100.00;60484.78;5059505;28;20487;-73
2021/11/07 02:27:34;;;;;;;8.97;4.07;;;;;;;-145.18;100.00;60484.78;5058222;28;20487;-72
2021/11/07 02:29:59;;;;;;;7.53;4.37;;;;;;;-145.18;100.00;60484.78;5058744;28;20286;-71
2021/11/07 02:32:26;;;;;;;8.93;4.00;;;;;;;-145.18;100.00;60484.78;5058142;28;20268;-71
2021/11/07 02:34:52;;;;;;;8.67;4.57;;;;;;;-145.18;100.00;60484.78;5059651;28;20028;-73
2021/11/07 02:37:19;;;;;;;7.67;4.57;;;;;;;-145.18;100.00;60484.78;5059194;28;20029;-72
2021/11/07 02:39:44;;;;;;;7.40;3.87;;;;;;;-145.18;100.00;60484.78;5058391;28;20135;-72
2021/11/07 02:42:11;;;;;;;8.30;4.20;;;;;;;-145.18;100.00;60484.78;5057330;28;20459;-71
2021/11/07 02:44:41;;;;;;;8.17;3.63;;;;;;;-145.18;100.00;60484.78;5057745;28;20109;-71
2021/11/07 02:47:09;;;;;;;6.80;4.00;;;;;;;-145.18;100.00;60484.78;5056881;28;20098;-71
2021/11/07 02:49:35;;;;;;;8.60;4.47;;;;;;;-145.18;100.00;60484.78;5055716;28;20369;-71
2021/11/07 02:52:02;;;;;;;7.17;4.13;;;;;;;-145.18;100.00;60484.78;5057099;28;20107;-70
2021/11/07 02:54:29;;;;;;;7.57;3.70;;;;;;;-145.18;100.00;60484.78;5056875;28;20028;-71
2021/11/07 02:56:57;;;;;;;8.27;4.30;;;;;;;-145.18;100.00;60484.78;5057663;28;20592;-72
2021/11/07 02:59:25;;;;;;;7.50;4.37;;;;;;;-145.18;100.00;60484.78;5055072;28;20055;-71
2021/11/07 03:01:54;;;;;;;7.17;4.10;;;;;;;-145.18;100.00;60484.78;5056642;28;20593;-71
2021/11/07 03:04:21;;;;;;;7.33;4.13;;;;;;;-145.18;100.00;60484.78;5057294;28;20035;-72
2021/11/07 03:06:46;;;;;;;7.23;3.87;;;;;;;-145.18;100.00;60484.78;5056358;28;20040;-72
2021/11/07 03:09:16;;;;;;;8.30;4.30;;;;;;;-145.18;100.00;60484.78;5058245;28;20028;-73
2021/11/07 03:11:43;;;;;;;8.43;4.40;;;;;;;-145.18;100.00;60484.78;5057377;28;20043;-74
2021/11/07 03:14:11;;;;;;;7.43;4.07;;;;;;;-145.18;100.00;60484.78;5057791;28;20021;-75
2021/11/07 03:16:37;;;;;;;7.53;3.87;;;;;;;-145.18;100.00;60484.78;5057563;28;20020;-73
2021/11/07 03:19:02;;;;;;;6.77;3.50;;;;;;;-145.18;100.00;60484.78;5058616;28;20066;-73
2021/11/07 03:21:28;;;;;;;9.10;4.50;;;;;;;-145.18;100.00;60484.78;5060759;28;20035;-72
2021/11/07 03:23:53;;;;;;;7.40;4.20;;;;;;;-145.18;100.00;60484.78;5062108;28;20071;-73
2021/11/07 03:26:23;;;;;;;7.50;4.23;;;;;;;-145.18;100.00;60484.78;5063251;28;20215;-72
2021/11/07 03:28:52;;;;;;;6.57;3.83;;;;;;;-145.18;100.00;60484.78;5060223;28;20653;-71
2021/11/07 03:31:26;;;;;;;7.03;3.87;;;;;;;-145.18;100.00;60484.78;5061977;28;20021;-72
2021/11/07 03:33:55;;;;;;;7.83;3.90;;;;;;;-145.18;100.00;60484.78;5061860;28;20497;-70
2021/11/07 03:36:21;;;;;;;7.57;4.50;;;;;;;-145.18;100.00;60484.78;5060679;28;20101;-72
2021/11/07 03:38:50;;;;;;;9.07;4.10;;;;;;;-145.18;100.00;60484.78;5061147;28;20582;-71
2021/11/07 03:41:17;;;;;;;5.93;3.40;;;;;;;-145.18;100.00;60484.78;5060196;28;20039;-72
2021/11/07 03:43:43;;;;;;;6.50;3.77;;;;;;;-145.18;100.00;60484.78;5057699;28;20029;-70
2021/11/07 03:46:09;;;;;;;7.93;4.07;;;;;;;-145.18;100.00;60484.78;5060580;28;20032;-70
2021/11/07 03:48:34;;;;;;;8.23;3.70;;;;;;;-145.18;100.00;60484.78;5059735;28;20051;-70
2021/11/07 03:51:01;;;;;;;6.97;3.57;;;;;;;-145.18;100.00;60484.78;5059239;28;20036;-70
2021/11/07 03:53:28;;;;;;;7.10;3.43;;;;;;;-145.18;100.00;60484.78;5060017;28;20028;-69
2021/11/07 03:55:53;;;;;;;5.97;3.53;;;;;;;-145.18;100.00;60484.78;5060823;28;20024;-70
2021/11/07 03:58:19;;;;;;;12.57;4.13;;;;;;;-145.18;100.00;60484.78;5061737;28;20020;-70
2021/11/07 04:00:45;;;;;;;6.80;3.40;;;;;;;-145.18;100.00;60484.78;5059736;28;20041;-70
2021/11/07 04:03:13;;;;;;;6.27;2.70;;;;;;;-145.18;100.00;60484.78;5061013;28;20089;-70
2021/11/07 04:05:38;;;;;;;7.07;3.07;;;;;;;-145.18;100.00;60484.78;5058942;28;20539;-70
2021/11/07 04:08:05;;;;;;;7.33;3.23;;;;;;;-145.18;100.00;60484.78;5060452;28;20029;-69
2021/11/07 04:10:33;;;;;;;6.77;3.50;;;;;;;-145.18;100.00;60484.78;5061057;28;20039;-70
2021/11/07 04:12:58;;;;;;;6.83;3.90;;;;;;;-145.18;100.00;60484.78;5059791;28;20098;-70
2021/11/07 04:15:25;;;;;;;9.93;3.97;;;;;;;-145.18;100.00;60484.78;5060218;28;20020;-69
2021/11/07 04:17:51;;;;;;;8.10;3.60;;;;;;;-145.18;100.00;60484.78;5060684;28;20024;-70
2021/11/07 04:20:17;;;;;;;6.27;3.53;;;;;;;-145.18;100.00;60484.78;5060636;28;20036;-69
2021/11/07 04:22:42;;;;;;;10.90;4.10;;;;;;;-145.18;100.00;60484.78;5060588;28;20084;-70
2021/11/07 04:25:09;;;;;;;6.57;3.60;;;;;;;-145.18;100.00;60484.78;5060134;28;20031;-69
2021/11/07 04:27:35;;;;;;;8.50;3.73;;;;;;;-145.18;100.00;60484.78;5059916;28;20056;-70
2021/11/07 04:30:02;;;;;;;12.13;4.50;;;;;;;-145.18;100.00;60484.78;5042290;28;20048;-70
2021/11/07 04:32:28;;;;;;;7.70;3.90;;;;;;;-145.18;100.00;60484.78;5055094;28;20029;-70
2021/11/07 04:34:53;;;;;;;7.17;3.73;;;;;;;-145.18;100.00;60484.78;5059914;28;20020;-71
2021/11/07 04:37:19;;;;;;;9.90;4.00;;;;;;;-145.18;100.00;60484.78;5059411;28;20032;-70
2021/11/07 04:39:46;;;;;;;7.57;3.70;;;;;;;-145.18;100.00;60484.78;5060551;28;20300;-70
2021/11/07 04:42:12;;;;;;;7.97;3.33;;;;;;;-145.18;100.00;60484.78;5059292;28;20055;-69
2021/11/07 04:44:38;;;;;;;7.53;3.10;;;;;;;-145.18;100.00;60484.78;5059102;28;20069;-70
2021/11/07 04:47:04;;;;;;;7.47;3.80;;;;;;;-145.18;100.00;60484.78;5060050;28;20028;-70
2021/11/07 04:49:30;;;;;;;6.03;3.47;;;;;;;-145.18;100.00;60484.78;5059325;28;20485;-69
2021/11/07 04:51:57;;;;;;;6.87;3.37;;;;;;;-145.18;100.00;60484.78;5059895;28;20066;-69
2021/11/07 04:54:22;;;;;;;9.07;4.33;;;;;;;-145.18;100.00;60484.78;5059588;28;20032;-68
2021/11/07 04:56:48;;;;;;;6.47;3.67;;;;;;;-145.18;100.00;60484.78;5059054;28;20321;-69
2021/11/07 04:59:15;;;;;;;10.80;4.20;;;;;;;-145.18;100.00;60484.78;5059565;28;20265;-69
2021/11/07 05:01:41;;;;;;;6.00;3.50;;;;;;;-145.18;100.00;60484.78;5058678;28;20443;-69
2021/11/07 05:04:09;;;;;;;8.17;3.40;;;;;;;-145.18;100.00;60484.78;5059295;28;20085;-69
2021/11/07 05:06:36;;;;;;;9.27;3.63;;;;;;;-145.18;100.00;60484.78;5059610;28;20058;-69
2021/11/07 05:09:02;;;;;;;9.97;3.80;;;;;;;-145.18;100.00;60484.78;5059490;28;20305;-69
2021/11/07 05:11:28;;;;;;;11.17;3.80;;;;;;;-145.18;100.00;60484.78;5058331;28;20043;-69
2021/11/07 05:13:53;;;;;;;12.07;3.33;;;;;;;-145.18;100.00;60484.78;5059288;28;20024;-70
2021/11/07 05:16:19;;;;;;;7.17;3.60;;;;;;;-145.18;100.00;60484.78;5058704;28;20380;-69
2021/11/07 05:18:45;;;;;;;10.47;3.30;;;;;;;-145.18;100.00;60484.78;5059116;28;20138;-69
2021/11/07 05:21:11;;;;;;;10.13;3.70;;;;;;;-145.18;100.00;60484.78;5059219;28;20268;-69
2021/11/07 05:23:37;;;;;;;7.27;2.87;;;;;;;-145.18;100.00;60484.78;5058553;28;20025;-71
2021/11/07 05:26:03;;;;;;;11.67;3.40;;;;;;;-145.18;100.00;60484.78;5058873;28;20027;-69
2021/11/07 05:28:29;;;;;;;8.20;3.20;;;;;;;-145.18;100.00;60484.78;5057780;28;20032;-69
2021/11/07 05:30:55;;;;;;;11.93;2.87;;;;;;;-145.18;100.00;60484.78;5056285;28;20032;-69
2021/11/07 05:33:20;;;;;;;10.57;3.20;;;;;;;-145.18;100.00;60484.78;5058681;28;20024;-69
2021/11/07 05:35:46;;;;;;;10.67;3.57;;;;;;;-145.18;100.00;60484.78;5058362;28;20044;-69
2021/11/07 05:38:11;;;;;;;13.40;3.77;;;;;;;-145.18;100.00;60484.78;5058278;28;20020;-69
2021/11/07 05:40:37;;;;;;;8.40;2.83;;;;;;;-145.18;100.00;60484.78;5057910;28;20059;-69
2021/11/07 05:43:03;;;;;;;14.90;3.53;;;;;;;-145.18;100.00;60484.78;5058079;28;20542;-71
2021/11/07 05:45:29;;;;;;;6.90;2.70;;;;;;;-145.18;100.00;60484.78;5058502;28;20070;-71
2021/11/07 05:47:54;;;;;;;12.03;3.40;;;;;;;-145.18;100.00;60484.78;5057551;28;20020;-71
2021/11/07 05:50:22;;;;;;;9.67;3.30;;;;;;;-145.18;100.00;60484.78;5057111;28;20520;-71
2021/11/07 05:52:47;;;;;;;10.83;3.10;;;;;;;-145.18;100.00;60484.78;5057054;28;20062;-70
2021/11/07 05:55:13;;;;;;;8.00;2.93;;;;;;;-145.18;100.00;60484.78;5058348;28;20094;-69
2021/11/07 05:57:40;;;;;;;12.73;3.50;;;;;;;-145.18;100.00;60484.78;5057662;28;20056;-69
2021/11/07 06:00:08;;;;;;;10.13;3.00;;;;;;;-145.18;100.00;60484.78;5055096;28;20499;-69
2021/11/07 06:02:33;;;;;;;7.43;2.53;;;;;;;-145.18;100.00;60484.78;5057446;28;20036;-69
2021/11/07 06:04:59;;;;;;;14.60;3.00;;;;;;;-145.18;100.00;60484.78;5058488;28;20039;-69
2021/11/07 06:07:24;;;;;;;9.23;2.73;;;;;;;-145.18;100.00;60484.78;5057758;28;20031;-69
2021/11/07 06:09:49;;;;;;;11.80;3.10;;;;;;;-145.18;100.00;60484.78;5058180;28;20443;-69
2021/11/07 06:12:15;;;;;;;10.60;3.17;;;;;;;-145.18;100.00;60484.78;5058343;28;20081;-69
2021/11/07 06:14:41;;;;;;;7.30;2.83;;;;;;;-145.18;100.00;60484.78;5058158;28;20083;-69
2021/11/07 06:17:07;;;;;;;14.47;2.80;;;;;;;-145.18;100.00;60484.78;5058088;28;20032;-69
2021/11/07 06:19:33;;;;;;;9.83;2.67;;;;;;;-145.18;100.00;60484.78;5057330;28;20530;-68
2021/11/07 06:21:58;;;;;;;10.67;2.90;;;;;;;-145.18;100.00;60484.78;5057747;28;20028;-69
2021/11/07 06:24:26;;;;;;;8.30;2.40;;;;;;;-145.18;100.00;60484.78;5056998;28;20569;-69
2021/11/07 06:26:55;;;;;;;11.70;3.20;;;;;;;-145.18;100.00;60484.78;5058403;28;20284;-69
2021/11/07 06:29:20;;;;;;;10.87;2.30;;;;;;;-145.18;100.00;60484.78;5057234;28;20035;-70
2021/11/07 06:31:46;;;;;;;12.60;3.57;;;;;;;-145.18;100.00;60484.78;5057076;28;20373;-69
2021/11/07 06:34:11;;;;;;;11.47;2.93;;;;;;;-145.18;100.00;60484.78;5057894;28;20065;-68
2021/11/07 06:36:37;;;;;;;11.37;2.47;;;;;;;-145.18;100.00;60484.78;5057374;28;20024;-69
2021/11/07 06:39:03;;;;;;;12.97;2.43;;;;;;;-145.18;100.00;60484.78;5057161;28;20031;-68
2021/11/07 06:41:29;;;;;;;11.47;2.43;;;;;;;-145.18;100.00;60484.78;5056959;28;20111;-69
2021/11/07 06:43:54;;;;;;;10.13;2.60;;;;;;;-145.18;100.00;60484.78;5057929;28;20284;-70
2021/11/07 06:46:22;;;;;;;7.87;1.77;;;;;;;-145.18;100.00;60484.78;5058721;28;20036;-70
2021/11/07 06:48:49;;;;;;;11.63;2.00;;;;;;;-145.18;100.00;60484.78;5056638;28;20089;-70
2021/11/07 06:51:16;;;;;;;6.83;1.90;;;;;;;-145.18;100.00;60484.78;5056006;28;20052;-68
2021/11/07 06:53:42;;;;;;;12.20;1.73;;;;;;;-145.18;100.00;60484.78;5057052;28;20411;-70
2021/11/07 06:56:10;;;;;;;9.57;1.83;;;;;;;-145.18;100.00;60484.78;5060816;28;20269;-70
2021/11/07 06:58:36;;;;;;;11.27;2.40;;;;;;;-145.18;100.00;60484.78;5063380;28;20028;-70
2021/11/07 07:01:02;;;;;;;9.90;2.00;;;;;;;-145.18;100.00;60484.78;5058752;28;20045;-71
2021/11/07 07:03:27;;;;;;;9.20;2.57;;;;;;;-145.18;100.00;60484.78;5050157;28;20217;-69
2021/11/07 07:05:55;;;;;;;10.80;2.20;;;;;;;-145.18;100.00;60484.78;5062507;28;20052;-70
2021/11/07 07:08:25;;;;;;;5.87;1.67;;;;;;;-145.18;100.00;60484.78;5061668;28;20051;-69
2021/11/07 07:10:56;;;;;;;11.80;2.00;;;;;;;-145.18;100.00;60484.78;5061877;28;20067;-69
2021/11/07 07:13:27;;;;;;;11.07;2.97;;;;;;;-145.18;100.00;60484.78;5062512;28;20250;-71
2021/11/07 07:16:06;;;;;;;7.20;2.72;;;;;;;-145.18;100.00;60484.78;5062669;28;20099;-70
2021/11/07 07:18:45;;;;;;;13.97;2.67;;;;;;;-145.18;100.00;60484.78;5061491;28;20111;-70
2021/11/07 07:21:33;;;;;;;9.93;1.70;;;;;;;-145.18;100.00;60484.78;5061689;28;20602;-71
2021/11/07 07:27:05;;;;;;;13.30;2.03;;;;;;;-145.18;100.00;60484.78;5062742;28;20065;-68
2021/11/07 07:29:55;;;;;;;9.60;2.37;;;;;;;-145.18;100.00;60484.78;5062619;28;20526;-71
2021/11/07 07:34:53;;;;;;;13.27;2.77;;;;;;;-145.18;100.00;60484.78;5061635;28;20179;-69
2021/11/07 07:37:18;;;;;;;11.23;2.40;;;;;;;-145.18;100.00;60484.78;5061697;28;20234;-69
2021/11/07 07:39:44;;;;;;;20.43;2.47;;;;;;;-145.18;100.00;60484.78;5057336;28;20684;-69
2021/11/07 07:42:09;;;;;;;9.10;2.10;;;;;;;-145.18;100.00;60484.78;5059621;28;20024;-69
2021/11/07 07:44:35;;;;;;;11.23;1.87;;;;;;;-145.18;100.00;60484.78;5061685;28;20163;-70
2021/11/07 07:47:01;;;;;;;8.80;1.90;;;;;;;-145.18;100.00;60484.78;5043051;28;20036;-70
2021/11/07 07:49:27;;;;;;;9.07;1.63;;;;;;;-145.18;100.00;60484.78;5061403;28;20032;-69
2021/11/07 07:51:55;;;;;;;6.47;1.77;;;;;;;-145.18;100.00;60484.78;5061180;28;20051;-69
2021/11/07 07:54:21;;;;;;;11.70;2.20;;;;;;;-145.18;100.00;60484.78;5055396;28;20129;-69
2021/11/07 07:56:46;;;;;;;13.10;2.13;;;;;;;-145.18;100.00;60484.78;5059803;28;20025;-70
2021/11/07 07:59:12;;;;;;;12.50;2.67;;;;;;;-145.18;100.00;60484.78;5060909;28;20040;-70
2021/11/07 08:01:37;;;;;;;10.63;2.03;;;;;;;-145.18;100.00;60484.78;5059268;28;20508;-70
2021/11/07 08:04:03;;;;;;;6.07;1.50;;;;;;;-145.18;100.00;60484.78;5061034;28;20045;-69
2021/11/07 08:06:29;;;;;;;11.07;1.90;;;;;;;-145.18;100.00;60484.78;5060562;28;20142;-70
2021/11/07 08:08:54;;;;;;;12.00;2.03;;;;;;;-145.18;100.00;60484.78;5060605;28;20829;-70
2021/11/07 08:11:22;;;;;;;14.63;2.83;;;;;;;-145.18;100.00;60484.78;5059834;28;20638;-70
2021/11/07 08:13:51;;;;;;;13.07;2.90;;;;;;;-145.18;100.00;60484.78;5060397;28;20036;-69
2021/11/07 08:16:17;;;;;;;9.77;2.37;;;;;;;-145.18;100.00;60484.78;5060661;28;20532;-70
2021/11/07 08:18:43;;;;;;;13.27;2.37;;;;;;;-145.18;100.00;60484.78;5060681;28;20216;-70
2021/11/07 08:21:09;;;;;;;14.73;2.27;;;;;;;-145.18;100.00;60484.78;5060715;28;20035;-70
2021/11/07 08:23:35;;;;;;;9.37;1.93;;;;;;;-145.18;100.00;60484.78;5060130;28;20028;-69
2021/11/07 08:26:02;;;;;;;9.73;1.77;;;;;;;-145.18;100.00;60484.78;5060992;28;20038;-69
2021/11/07 08:28:29;;;;;;;10.73;1.60;;;;;;;-145.18;100.00;60484.78;5060102;28;20090;-71
2021/11/07 08:31:03;;;;;;;7.03;1.87;;;;;;;-145.18;100.00;60484.78;5060924;28;20595;-70
2021/11/07 08:33:29;;;;;;;9.50;2.13;;;;;;;-145.18;100.00;60484.78;5060489;28;20040;-71
2021/11/07 08:36:01;;;;;;;7.37;1.70;;;;;;;-145.18;100.00;60484.78;5060185;28;20150;-71
2021/11/07 08:38:31;;;;;;;6.75;1.67;;;;;;;-145.18;100.00;60484.78;5042303;28;20534;-70
2021/11/07 08:40:58;;;;;;;6.53;1.73;;;;;;;-145.18;100.00;60484.78;5060225;28;20171;-71
2021/11/07 09:05:08;;;;;;;11.67;1.53;;;;;;;-145.18;100.00;60484.78;4975440;28;20113;-69
2021/11/07 09:10:20;;;;;;;8.87;1.80;;;;;;;-145.18;100.00;60484.78;4974472;28;20089;-69
2021/11/07 09:12:48;;;;;;;8.47;1.77;;;;;;;-145.18;100.00;60484.78;4975853;28;20090;-69
2021/11/07 09:15:15;;;;;;;5.77;1.40;;;;;;;-145.18;100.00;60484.78;4976563;28;20030;-69
2021/11/07 09:17:43;;;;;;;12.57;1.73;;;;;;;-145.18;100.00;60484.78;4974906;28;20481;-68
2021/11/07 09:20:14;;;;;;;7.47;1.40;;;;;;;-145.18;100.00;60484.78;4975593;28;20038;-68
2021/11/07 09:22:48;;;;;;;6.07;1.60;;;;;;;-145.18;100.00;60484.78;4975513;28;20621;-68
2021/11/07 09:25:22;;;;;;;10.07;1.87;;;;;;;-145.18;100.00;60484.78;4976203;28;20177;-69
2021/11/07 09:28:13;;;;;;;9.70;1.50;;;;;;;-145.18;100.00;60484.78;4965159;28;20042;-69
2021/11/07 09:33:22;;;;;;;13.90;1.57;;;;;;;-145.18;100.00;60484.78;4976844;28;20549;-69
2021/11/07 09:38:34;;;;;;;6.50;1.10;;;;;;;-145.18;100.00;60484.78;4979859;28;20395;-69
2021/11/07 09:46:40;;;;;;;4.47;1.43;;;;;;;-145.18;100.00;60484.78;5059680;28;20102;-69
2021/11/07 09:49:17;;;;;;;10.17;1.30;;;;;;;-145.18;100.00;60484.78;5059224;28;20032;-70
2021/11/07 09:51:48;;;;;;;6.63;1.73;;;;;;;-145.18;100.00;60484.78;5059369;28;20107;-70
2021/11/07 09:54:17;;;;;;;10.73;1.93;;;;;;;-145.18;100.00;60484.78;5059792;28;20391;-70
2021/11/07 09:56:50;;;;;;;9.43;1.40;;;;;;;-145.18;100.00;60484.78;5054230;28;20396;-71
2021/11/07 09:59:17;;;;;;;10.13;1.57;;;;;;;-145.18;100.00;60484.78;5059392;28;20107;-69
2021/11/07 10:01:44;;;;;;;4.50;1.27;;;;;;;-145.18;100.00;60484.78;5059069;28;20439;-70
2021/11/07 10:04:11;;;;;;;6.80;1.60;;;;;;;-145.18;100.00;60484.78;5059291;28;20025;-69
2021/11/07 10:06:44;;;;;;;9.23;1.70;;;;;;;-145.18;100.00;60484.78;5058942;28;20032;-69
2021/11/07 10:09:12;;;;;;;9.33;1.50;;;;;;;-145.18;100.00;60484.78;5059257;28;20032;-70
2021/11/07 10:12:31;;;;;;;9.83;1.57;;;;;;;-145.18;100.00;60484.78;5059315;28;20154;-70
2021/11/07 10:15:02;;;;;;;9.40;1.57;;;;;;;-145.18;100.00;60484.78;4957340;28;20027;-69
2021/11/07 10:20:27;;;;;;;12.77;1.73;;;;;;;-145.18;100.00;60484.78;4957201;28;20035;-70
2021/11/07 10:23:09;;;;;;;12.00;1.73;;;;;;;-145.18;100.00;60484.78;4956975;28;20046;-70
2021/11/07 10:25:43;;;;;;;7.00;1.67;;;;;;;-145.18;100.00;60484.78;4950181;28;20069;-70
2021/11/07 10:28:20;;;;;;;8.90;1.33;;;;;;;-145.18;100.00;60484.78;4944902;28;20054;-69
2021/11/07 10:30:49;;;;;;;10.50;1.90;;;;;;;-145.18;100.00;60484.78;4956722;28;20034;-69
2021/11/07 10:33:39;;;;;;;9.40;2.10;;;;;;;-145.18;100.00;60484.78;4956695;28;20047;-70
2021/11/07 10:39:15;;;;;;;8.80;1.50;;;;;;;-145.18;100.00;60484.78;4956415;28;20257;-69
2021/11/07 10:52:20;;;;;;;7.77;0.90;;;;;;;-145.18;100.00;60484.78;5058152;28;20036;-68
2021/11/07 10:54:46;;;;;;;4.30;1.43;;;;;;;-145.18;100.00;60484.78;5058509;28;20365;-68
2021/11/07 10:57:17;;;;;;;7.50;1.57;;;;;;;-145.18;100.00;60484.78;5057902;28;20040;-67
2021/11/07 11:00:05;;;;;;;11.43;1.87;;;;;;;-145.18;100.00;60484.78;5058120;28;20047;-68
2021/11/07 11:02:35;;;;;;;8.10;1.30;;;;;;;-145.18;100.00;60484.78;5058022;28;20057;-68
2021/11/07 11:05:11;;;;;;;8.57;1.80;;;;;;;-145.18;100.00;60484.78;5057974;28;20032;-67
2021/11/07 11:07:49;;;;;;;6.90;1.57;;;;;;;-145.18;100.00;60484.78;5057843;28;20431;-67
2021/11/07 11:10:19;;;;;;;6.97;1.57;;;;;;;-145.18;100.00;60484.78;5057951;28;20713;-67
2021/11/07 11:13:13;;;;;;;5.63;1.13;;;;;;;-145.18;100.00;60484.78;5057915;28;20170;-67
2021/11/07 11:15:50;;;;;;;7.03;1.27;;;;;;;-145.18;100.00;60484.78;5055876;28;20123;-69
2021/11/07 11:31:42;;;;;;;5.70;1.27;;;;;;;-145.18;100.00;60484.78;4995294;28;20121;-70
2021/11/07 11:34:13;;;;;;;11.30;1.90;;;;;;;-145.18;100.00;60484.78;4995386;28;20029;-67
2021/11/07 11:36:47;;;;;;;8.57;1.50;;;;;;;-145.18;100.00;60484.78;4995191;28;20287;-67
2021/11/07 11:39:19;;;;;;;8.63;1.20;;;;;;;-145.18;100.00;60484.78;4994917;28;20029;-67
2021/11/07 11:41:53;;;;;;;7.93;1.93;;;;;;;-145.18;100.00;60484.78;4995546;28;20064;-68
2021/11/07 11:44:20;;;;;;;17.30;1.87;;;;;;;-145.18;100.00;60484.78;4986812;28;20038;-68
2021/11/07 11:47:02;;;;;;;10.47;0.90;;;;;;;-145.18;100.00;60484.78;4998738;28;20087;-68
2021/11/07 11:49:57;;;;;;;5.05;1.67;;;;;;;-145.18;100.00;60484.78;4993426;28;20026;-68
2021/11/07 12:05:13;;;;;;;9.60;1.40;;;;;;;-145.18;100.00;60484.78;5061103;28;20063;-70
2021/11/07 12:07:51;;;;;;;7.83;2.00;;;;;;;-145.18;100.00;60484.78;5060006;28;20032;-68
2021/11/07 12:11:12;;;;;;;10.57;1.40;;;;;;;-145.18;100.00;60484.78;5052484;28;20040;-68
2021/11/07 12:13:59;;;;;;;9.03;1.40;;;;;;;-145.18;100.00;60484.78;5039569;28;20542;-68
2021/11/07 12:16:57;;;;;;;3.40;0.83;;;;;;;-145.18;100.00;60484.78;5059665;28;20145;-68
2021/11/07 12:19:33;;;;;;;10.23;1.50;;;;;;;-145.18;100.00;60484.78;4958899;28;20245;-68
2021/11/07 12:22:02;;;;;;;4.40;1.20;;;;;;;-145.18;100.00;60484.78;4959040;28;20034;-68
2021/11/07 12:24:37;;;;;;;4.40;0.83;;;;;;;-145.18;100.00;60484.78;4958035;28;20030;-68
2021/11/07 12:27:24;;;;;;;5.47;0.73;;;;;;;-145.18;100.00;60484.78;4970039;28;20041;-68
2021/11/07 12:30:03;;;;;;;6.10;0.83;;;;;;;-145.18;100.00;60484.78;4953086;28;20487;-68
2021/11/07 12:32:36;;;;;;;7.17;1.17;;;;;;;-145.18;100.00;60484.78;4958271;28;20323;-68
2021/11/07 12:35:29;;;;;;;11.30;1.47;;;;;;;-145.18;100.00;60484.78;4958517;28;20176;-68
2021/11/07 12:40:52;;;;;;;10.80;1.10;;;;;;;-145.18;100.00;60484.78;4958643;28;20045;-68
2021/11/07 12:43:35;;;;;;;4.03;1.13;;;;;;;-145.18;100.00;60484.78;4958717;28;20400;-68
2021/11/07 12:46:47;;;;;;;9.82;1.75;;;;;;;-145.18;100.00;60484.78;4958461;28;20023;-68
2021/11/07 12:49:15;;;;;;;7.77;0.90;;;;;;;-145.18;100.00;60484.78;4958413;28;20042;-68
2021/11/07 12:52:01;;;;;;;4.73;1.33;;;;;;;-145.18;100.00;60484.78;4958190;28;20247;-68
2021/11/07 12:54:29;;;;;;;5.90;1.57;;;;;;;-145.18;100.00;60484.78;4949496;28;20178;-67
2021/11/07 12:56:59;;;;;;;6.87;0.73;;;;;;;-145.18;100.00;60484.78;5056214;28;20123;-67
2021/11/07 12:59:36;;;;;;;4.90;1.10;;;;;;;-145.18;100.00;60484.78;5059619;28;20496;-67
2021/11/07 13:02:02;;;;;;;2.80;0.73;;;;;;;-145.18;100.00;60484.78;5055651;28;20048;-69
2021/11/07 13:05:00;;;;;;;4.13;1.00;;;;;;;-145.18;100.00;60484.78;5058433;28;20028;-69
2021/11/07 13:07:32;;;;;;;5.77;1.00;;;;;;;-145.18;100.00;60484.78;5049847;28;20120;-69
2021/11/07 13:10:08;;;;;;;5.10;0.85;;;;;;;-145.18;100.00;60484.78;5058497;28;20453;-69
2021/11/07 13:12:42;;;;;;;4.93;1.53;;;;;;;-145.18;100.00;60484.78;5056716;28;20115;-70
2021/11/07 13:18:49;;;;;;;7.73;1.37;;;;;;;-145.18;100.00;60484.78;5058721;28;20033;-70
2021/11/07 13:31:44;;;;;;;4.38;0.70;;;;;;;-145.18;100.00;60484.78;5058626;28;20024;-69
2021/11/07 13:34:17;;;;;;;7.57;0.83;;;;;;;-145.18;100.00;60484.78;5055153;28;20043;-69